Time;durP1;ratioP1;P1;durP2;ratioP2;P2;SDS_P1;SDS_P2;PMS_P1;PMS_P2;Temp;Humidity;BMP_temperature;BMP_pressure;BME280_temperature;BME280_humidity;BME280_pressure;Samples;Min_cycle;Max_cycle;Signal;HPM_P1;HPM_P2
2021/01/02 00:11:09;;;;;;;3.25;1.77;;;27.80;84.10;;;;;;5426257;23;20035;-90
2021/01/02 00:36:06;;;;;;;;;;;;;;;;;;;;;
2021/01/02 00:52:32;;;;;;;3.33;1.63;;;27.30;83.20;;;;;;4934116;29;20036;-94
2021/01/02 00:55:46;;;;;;;;;;;;;;;;;;;;;
2021/01/02 01:04:00;;;;;;;3.35;1.80;;;27.20;83.30;;;;;;5082749;23;19941;-90
2021/01/02 01:06:46;;;;;;;3.45;1.90;;;27.10;83.70;;;;;;4937594;29;20043;-93
2021/01/02 01:12:20;;;;;;;2.05;1.85;;;27.10;83.20;;;;;;3080150;23;20560;-93
2021/01/02 01:18:40;;;;;;;2.70;2.28;;;27.10;83.10;;;;;;5109457;23;20059;-93
2021/01/02 01:21:15;;;;;;;5.60;2.20;;;27.10;83.20;;;;;;4916907;29;20167;-92
2021/01/02 01:24:17;;;;;;;4.75;2.00;;;27.10;83.40;;;;;;4958819;29;20236;-92
2021/01/02 01:27:25;;;;;;;4.10;1.60;;;27.00;83.30;;;;;;4943243;29;20342;-94
2021/01/02 01:30:11;;;;;;;2.20;1.70;;;27.00;83.20;;;;;;4881472;29;20349;-92
2021/01/02 01:33:15;;;;;;;4.50;2.10;;;27.00;83.20;;;;;;5117725;23;20059;-93
2021/01/02 01:36:00;;;;;;;4.10;2.20;;;26.90;83.30;;;;;;4920531;29;20112;-93
2021/01/02 01:38:53;;;;;;;2.03;1.67;;;26.90;83.20;;;;;;4923114;29;20020;-94
2021/01/02 01:42:23;;;;;;;2.95;1.92;;;26.90;82.90;;;;;;4916076;29;20032;-94
2021/01/02 01:56:05;;;;;;;2.33;1.75;;;26.90;83.10;;;;;;4962232;29;20074;-92
2021/01/02 02:17:13;;;;;;;3.10;1.50;;;26.90;83.60;;;;;;5563656;23;20063;-92
2021/01/02 02:24:15;;;;;;;5.78;4.00;;;26.80;83.00;;;;;;4886776;29;20035;-92
2021/01/02 02:27:06;;;;;;;8.73;4.80;;;26.80;83.60;;;;;;4901013;29;20258;-91
2021/01/02 02:29:44;;;;;;;7.75;4.65;;;26.70;83.70;;;;;;4915392;29;20052;-91
2021/01/02 02:33:05;;;;;;;6.30;3.83;;;26.70;84.10;;;;;;4917592;29;20024;-92
2021/01/02 02:35:35;;;;;;;5.13;3.22;;;26.70;83.90;;;;;;4898961;29;20048;-91
2021/01/02 02:38:12;;;;;;;5.20;2.10;;;26.70;83.80;;;;;;5403738;23;20043;31
2021/01/02 02:41:14;;;;;;;4.30;1.73;;;26.70;84.20;;;;;;5291060;23;20031;-89
2021/01/02 02:44:07;;;;;;;2.28;1.50;;;26.70;84.00;;;;;;4940321;29;20048;-89
2021/01/02 02:46:53;;;;;;;2.53;1.40;;;26.70;84.50;;;;;;4921124;29;20024;-91
2021/01/02 02:57:53;;;;;;;2.87;1.80;;;26.60;84.30;;;;;;4962010;23;20050;-92
2021/01/02 03:00:20;;;;;;;3.08;1.48;;;26.50;84.10;;;;;;4937049;29;20280;-91
2021/01/02 03:05:40;;;;;;;1.95;1.20;;;26.50;84.30;;;;;;4976403;23;20084;-90
2021/01/02 03:08:07;;;;;;;5.28;2.13;;;26.50;84.90;;;;;;5086048;23;20047;-91
2021/01/02 03:10:44;;;;;;;2.67;1.60;;;26.50;84.50;;;;;;4955417;29;20023;-93
2021/01/02 03:13:13;;;;;;;2.17;1.67;;;26.50;84.50;;;;;;4955341;29;20024;-92
2021/01/02 03:15:43;;;;;;;3.65;1.50;;;26.40;84.70;;;;;;4959528;29;20023;-91
2021/01/02 03:24:43;;;;;;;2.38;1.52;;;26.40;84.70;;;;;;5207434;23;20035;-92
2021/01/02 03:47:12;;;;;;;3.30;1.55;;;26.30;85.10;;;;;;5140879;23;20344;-94
2021/01/02 03:49:41;;;;;;;3.08;1.60;;;26.30;85.70;;;;;;4901691;29;20042;-92
2021/01/02 03:52:30;;;;;;;2.47;1.30;;;26.30;85.40;;;;;;4908231;29;20043;-91
2021/01/02 03:55:10;;;;;;;1.88;1.48;;;26.30;85.20;;;;;;4912438;29;20036;-91
2021/01/02 03:58:05;;;;;;;2.47;1.20;;;26.20;85.40;;;;;;4911912;29;20029;-92
2021/01/02 04:03:37;;;;;;;2.17;1.88;;;26.20;85.70;;;;;;4921978;29;20095;-93
2021/01/02 04:11:21;;;;;;;4.65;1.90;;;26.10;85.70;;;;;;4933169;29;20047;-90
2021/01/02 04:14:11;;;;;;;2.97;1.20;;;26.10;85.70;;;;;;4906572;29;20036;-92
2021/01/02 04:16:43;;;;;;;1.63;1.48;;;26.20;85.70;;;;;;4902264;29;20036;-89
2021/01/02 04:19:12;;;;;;;1.42;1.25;;;26.20;85.40;;;;;;4920413;29;20083;-91
2021/01/02 04:22:20;;;;;;;1.67;1.52;;;26.20;85.40;;;;;;4922390;29;20096;-90
2021/01/02 04:28:08;;;;;;;1.60;1.40;;;26.20;85.70;;;;;;4999448;23;20055;-92
2021/01/02 04:31:02;;;;;;;2.63;1.63;;;26.30;86.20;;;;;;5009164;23;20031;-96
2021/01/02 04:33:30;;;;;;;3.60;1.50;;;26.20;85.60;;;;;;4905168;29;20056;-91
2021/01/02 04:36:17;;;;;;;3.22;1.60;;;26.20;85.50;;;;;;4919573;29;20136;-95
2021/01/02 04:38:44;;;;;;;3.40;1.40;;;26.20;85.00;;;;;;4915940;29;20024;-92
2021/01/02 04:41:17;;;;;;;1.42;1.20;;;26.20;85.10;;;;;;4920840;29;20035;-91
2021/01/02 04:44:00;;;;;;;1.75;1.63;;;26.20;85.50;;;;;;4922883;29;20048;-91
2021/01/02 04:46:52;;;;;;;1.40;1.30;;;26.20;85.50;;;;;;4938734;29;20039;-93
2021/01/02 04:49:20;;;;;;;3.17;1.52;;;26.30;85.60;;;;;;4936746;29;20056;-92
2021/01/02 04:52:10;;;;;;;1.50;1.40;;;26.20;85.20;;;;;;4936492;29;20024;-94
2021/01/02 04:54:46;;;;;;;2.72;1.40;;;26.20;85.90;;;;;;4921055;29;20064;-94
2021/01/02 04:57:17;;;;;;;3.95;1.55;;;26.20;85.90;;;;;;4920984;29;20027;-93
2021/01/02 05:00:02;;;;;;;1.83;1.48;;;26.10;86.00;;;;;;4920272;29;20024;-92
2021/01/02 05:02:32;;;;;;;2.15;1.33;;;26.10;86.50;;;;;;4921300;29;20043;-91
2021/01/02 05:04:59;;;;;;;4.55;1.50;;;26.10;86.10;;;;;;4918912;29;20028;-93
2021/01/02 05:07:45;;;;;;;3.42;1.50;;;26.20;85.80;;;;;;4920173;29;20028;-92
2021/01/02 05:10:20;;;;;;;2.25;1.60;;;26.10;86.10;;;;;;4922525;29;20055;-95
2021/01/02 05:16:37;;;;;;;2.10;1.30;;;26.10;87.40;;;;;;4939319;29;20039;-92
2021/01/02 05:19:25;;;;;;;2.55;1.48;;;26.10;87.60;;;;;;4920307;29;20024;-92
2021/01/02 05:21:51;;;;;;;1.88;1.40;;;26.10;87.40;;;;;;4920879;29;20136;-90
2021/01/02 05:24:38;;;;;;;1.83;1.48;;;26.00;87.90;;;;;;4918173;29;20031;-96
2021/01/02 05:27:07;;;;;;;2.63;1.60;;;26.00;87.80;;;;;;4937545;29;20028;-93
2021/01/02 05:29:34;;;;;;;3.88;1.30;;;25.90;88.50;;;;;;4921193;29;20031;-91
2021/01/02 05:32:02;;;;;;;3.40;1.40;;;25.90;88.30;;;;;;4923714;29;20327;-91
2021/01/02 05:34:31;;;;;;;1.50;1.30;;;25.80;88.60;;;;;;4937473;29;20051;-95
2021/01/02 05:37:09;;;;;;;3.05;1.63;;;25.80;88.80;;;;;;4940128;29;20023;-93
2021/01/02 05:39:49;;;;;;;1.95;1.70;;;25.90;88.50;;;;;;4936033;29;20024;-92
2021/01/02 05:42:54;;;;;;;3.35;1.70;;;25.90;88.60;;;;;;4957039;29;20248;-91
2021/01/02 05:45:32;;;;;;;2.50;1.75;;;25.90;87.90;;;;;;4911657;29;20041;-92
2021/01/02 05:48:25;;;;;;;2.03;1.40;;;26.00;87.90;;;;;;4902303;29;20198;-93
2021/01/02 05:51:03;;;;;;;1.77;1.30;;;26.00;88.70;;;;;;4899001;29;20029;-91
2021/01/02 05:53:37;;;;;;;1.70;1.42;;;26.00;88.50;;;;;;4883657;29;20032;-95
2021/01/02 05:56:19;;;;;;;2.20;1.52;;;25.90;88.60;;;;;;4899908;29;20039;-91
2021/01/02 05:59:00;;;;;;;1.90;1.38;;;25.90;89.50;;;;;;4872374;29;20049;-91
2021/01/02 06:01:38;;;;;;;3.90;1.58;;;25.90;88.50;;;;;;4864593;29;20041;-95
2021/01/02 06:04:06;;;;;;;3.35;1.40;;;26.00;88.10;;;;;;4860649;29;20033;-92
2021/01/02 06:06:42;;;;;;;1.95;1.30;;;25.90;87.90;;;;;;4831074;29;20120;-91
2021/01/02 06:09:15;;;;;;;2.17;1.50;;;25.90;88.20;;;;;;4851476;29;20065;-90
2021/01/02 06:12:15;;;;;;;3.55;1.65;;;25.90;88.10;;;;;;4848060;29;20049;-93
2021/01/02 06:14:43;;;;;;;3.28;1.67;;;25.80;88.60;;;;;;4859120;29;20025;-93
2021/01/02 06:17:32;;;;;;;2.75;1.70;;;25.80;89.00;;;;;;4875606;29;20034;-90
2021/01/02 06:20:36;;;;;;;2.97;1.70;;;25.70;87.80;;;;;;4874768;29;20029;-93
2021/01/02 06:26:13;;;;;;;2.45;1.83;;;25.80;87.80;;;;;;4993957;23;20095;-93
2021/01/02 06:29:19;;;;;;;6.50;1.80;;;25.80;88.30;;;;;;4934120;29;20031;-92
2021/01/02 06:31:52;;;;;;;2.08;1.52;;;25.80;87.90;;;;;;4911282;29;20056;-92
2021/01/02 06:34:22;;;;;;;1.75;1.40;;;25.80;88.30;;;;;;4893361;29;20423;-93
2021/01/02 06:36:56;;;;;;;2.10;1.45;;;25.80;87.30;;;;;;4881112;29;20040;-92
2021/01/02 06:39:28;;;;;;;2.75;1.98;;;25.80;86.90;;;;;;4909328;29;20052;-90
2021/01/02 06:41:57;;;;;;;2.30;1.30;;;25.80;89.50;;;;;;4878985;29;20043;-90
2021/01/02 06:44:43;;;;;;;1.52;1.40;;;25.70;88.00;;;;;;4893933;29;20024;-92
2021/01/02 06:47:56;;;;;;;2.67;1.80;;;25.70;88.00;;;;;;4894392;29;20036;-91
2021/01/02 06:50:34;;;;;;;3.08;1.70;;;25.80;88.40;;;;;;4907314;29;20040;-91
2021/01/02 06:53:34;;;;;;;1.98;1.30;;;25.80;89.40;;;;;;4909396;29;20060;-92
2021/01/02 06:56:16;;;;;;;4.80;1.77;;;25.70;88.10;;;;;;4907574;29;20209;-90
2021/01/02 06:58:50;;;;;;;2.50;1.60;;;25.80;87.80;;;;;;4893740;29;20028;-92
2021/01/02 07:01:17;;;;;;;2.58;1.77;;;25.80;87.60;;;;;;4892991;29;20224;-91
2021/01/02 07:03:48;;;;;;;4.60;1.40;;;25.70;88.40;;;;;;4928553;29;20038;-92
2021/01/02 07:06:31;;;;;;;2.15;1.40;;;25.70;87.80;;;;;;4948446;29;20050;-91
2021/01/02 07:09:23;;;;;;;3.33;1.60;;;25.70;88.40;;;;;;4929526;29;20055;-91
2021/01/02 07:12:13;;;;;;;1.70;1.33;;;25.60;88.30;;;;;;4947533;29;20034;-94
2021/01/02 07:14:43;;;;;;;2.33;1.45;;;25.70;88.90;;;;;;4953068;29;20039;-91
2021/01/02 07:17:11;;;;;;;2.20;1.55;;;25.60;88.30;;;;;;4915668;29;20027;-92
2021/01/02 07:20:05;;;;;;;2.42;1.70;;;25.60;88.60;;;;;;4931513;29;20224;-93
2021/01/02 07:22:32;;;;;;;1.85;1.60;;;25.60;89.10;;;;;;4915836;29;20095;-93
2021/01/02 07:25:06;;;;;;;2.03;1.40;;;25.60;89.20;;;;;;4930957;29;20102;-92
2021/01/02 07:27:38;;;;;;;3.20;1.65;;;25.60;89.80;;;;;;4930166;29;20039;-91
2021/01/02 07:30:09;;;;;;;3.35;1.50;;;25.60;88.90;;;;;;4930940;29;20035;-93
2021/01/02 07:32:41;;;;;;;7.22;1.67;;;25.50;89.00;;;;;;4931041;29;20033;-95
2021/01/02 07:35:09;;;;;;;2.25;1.38;;;25.40;89.80;;;;;;4930997;29;20071;-91
2021/01/02 07:37:52;;;;;;;2.53;2.00;;;25.40;89.40;;;;;;4930897;29;20123;-92
2021/01/02 07:40:23;;;;;;;2.22;1.60;;;25.40;89.40;;;;;;4933747;29;20027;-93
2021/01/02 07:42:54;;;;;;;1.88;1.50;;;25.40;89.40;;;;;;4931214;29;20314;-92
2021/01/02 07:45:25;;;;;;;2.60;1.53;;;25.50;89.30;;;;;;4948311;29;20035;-92
2021/01/02 07:47:57;;;;;;;5.65;1.65;;;25.50;89.00;;;;;;4918120;29;20268;-91
2021/01/02 07:50:26;;;;;;;1.90;1.58;;;25.50;89.40;;;;;;4930419;29;20054;-92
2021/01/02 07:52:52;;;;;;;3.63;1.95;;;25.50;88.50;;;;;;4930599;29;20023;-91
2021/01/02 07:55:26;;;;;;;1.88;1.30;;;25.50;88.60;;;;;;4930381;29;20071;-90
2021/01/02 07:57:53;;;;;;;3.28;1.77;;;25.50;88.90;;;;;;4930572;29;20050;-92
2021/01/02 08:00:22;;;;;;;2.70;1.40;;;25.60;88.30;;;;;;4932511;29;20023;-93
2021/01/02 08:02:49;;;;;;;3.72;1.85;;;25.60;88.80;;;;;;4914456;29;20050;-93
2021/01/02 08:05:22;;;;;;;1.83;1.42;;;25.60;88.70;;;;;;4930207;29;20051;-95
2021/01/02 08:08:13;;;;;;;2.05;1.40;;;25.50;88.50;;;;;;4916291;29;20039;-96
2021/01/02 08:10:42;;;;;;;3.38;1.88;;;25.50;88.50;;;;;;4930884;29;20289;-96
2021/01/02 08:13:09;;;;;;;2.33;1.25;;;25.50;88.70;;;;;;4930630;29;20030;-96
2021/01/02 08:15:37;;;;;;;1.80;1.38;;;25.40;88.80;;;;;;4930164;29;20027;-95
2021/01/02 08:18:05;;;;;;;2.20;1.40;;;25.40;88.90;;;;;;4930248;29;20312;-90
2021/01/02 08:20:33;;;;;;;2.25;1.30;;;25.40;89.50;;;;;;4930345;29;20055;-91
2021/01/02 08:23:07;;;;;;;4.72;1.58;;;25.30;90.10;;;;;;4930168;29;20016;-91
2021/01/02 08:25:34;;;;;;;7.32;1.90;;;25.30;90.00;;;;;;4930144;29;20050;-93
2021/01/02 08:28:01;;;;;;;2.30;1.63;;;25.30;90.20;;;;;;4947213;29;20027;-93
2021/01/02 08:30:28;;;;;;;2.47;1.98;;;25.20;90.40;;;;;;4930152;29;20379;-92
2021/01/02 08:32:59;;;;;;;3.50;1.48;;;25.20;90.30;;;;;;4930278;29;20024;-92
2021/01/02 08:35:36;;;;;;;1.92;1.35;;;25.20;90.40;;;;;;4930121;29;20098;-92
2021/01/02 08:38:27;;;;;;;3.38;1.70;;;25.20;90.50;;;;;;4932176;29;20049;-94
2021/01/02 08:40:54;;;;;;;1.63;1.35;;;25.20;90.40;;;;;;4930437;29;20027;-91
2021/01/02 08:43:27;;;;;;;1.95;1.58;;;25.20;90.40;;;;;;4947452;29;20028;-91
2021/01/02 08:46:03;;;;;;;2.10;1.60;;;25.20;90.30;;;;;;4930772;29;20027;-91
2021/01/02 08:48:30;;;;;;;4.20;1.67;;;25.20;90.60;;;;;;4930240;29;20031;-93
2021/01/02 08:50:57;;;;;;;2.13;1.58;;;25.20;90.40;;;;;;4930414;29;20039;-93
2021/01/02 08:53:33;;;;;;;2.88;1.75;;;25.20;90.50;;;;;;4930696;29;20047;-93
2021/01/02 08:56:18;;;;;;;2.58;1.30;;;25.20;90.40;;;;;;4931206;29;20046;-92
2021/01/02 08:58:44;;;;;;;2.90;1.30;;;25.20;90.40;;;;;;4931029;29;20035;-92
2021/01/02 09:01:11;;;;;;;5.10;1.60;;;25.20;90.40;;;;;;4930693;29;20039;-93
2021/01/02 09:03:37;;;;;;;2.33;1.48;;;25.10;90.40;;;;;;4930064;29;20043;-91
2021/01/02 09:06:26;;;;;;;2.88;1.90;;;25.20;90.40;;;;;;4929606;29;20199;-92
2021/01/02 09:09:04;;;;;;;1.90;1.45;;;25.10;90.40;;;;;;4914879;29;20024;-91
2021/01/02 09:11:51;;;;;;;2.90;1.40;;;25.10;90.50;;;;;;4934371;28;20022;-91
2021/01/02 09:14:18;;;;;;;2.20;1.33;;;25.10;90.40;;;;;;4943838;28;20039;-94
2021/01/02 09:17:04;;;;;;;3.35;1.63;;;25.10;90.50;;;;;;4943877;28;20020;-90
2021/01/02 09:19:50;;;;;;;1.90;1.40;;;25.00;90.50;;;;;;4958900;28;20019;-89
2021/01/02 09:22:25;;;;;;;7.80;2.42;;;25.00;90.70;;;;;;4942561;29;20028;-89
2021/01/02 09:25:14;;;;;;;14.35;3.13;;;24.80;91.20;;;;;;4959388;28;20050;-95
2021/01/02 09:27:52;;;;;;;8.02;2.17;;;24.60;91.90;;;;;;4995725;23;20039;-95
2021/01/02 09:30:28;;;;;;;3.90;2.03;;;24.50;92.40;;;;;;4928670;29;20032;-95
2021/01/02 09:35:45;;;;;;;9.13;3.05;;;24.60;91.90;;;;;;4940675;29;20256;-89
2021/01/02 09:38:12;;;;;;;8.43;2.85;;;24.50;92.60;;;;;;4914322;29;20032;-92
2021/01/02 09:40:43;;;;;;;8.40;3.05;;;24.30;93.50;;;;;;4915044;29;20316;-92
2021/01/02 09:43:15;;;;;;;10.60;3.33;;;24.30;93.90;;;;;;4912048;29;20020;-96
2021/01/02 09:45:43;;;;;;;5.20;2.60;;;24.30;94.20;;;;;;4915511;29;20035;-92
2021/01/02 09:48:11;;;;;;;9.32;2.83;;;24.30;94.00;;;;;;4913455;29;20027;-93
2021/01/02 09:50:41;;;;;;;4.15;2.28;;;24.40;93.90;;;;;;4913445;29;20024;-92
2021/01/02 09:53:10;;;;;;;5.70;2.15;;;24.40;94.10;;;;;;4933884;29;20047;-89
2021/01/02 09:55:52;;;;;;;3.67;2.08;;;24.40;94.10;;;;;;4917860;29;20032;-92
2021/01/02 09:58:21;;;;;;;4.05;2.45;;;24.40;93.90;;;;;;4919687;29;20035;-89
2021/01/02 10:00:50;;;;;;;4.13;2.33;;;24.40;94.20;;;;;;4933048;29;20036;-91
2021/01/02 10:03:20;;;;;;;4.22;2.00;;;24.30;94.40;;;;;;4934595;29;20040;-92
2021/01/02 10:05:46;;;;;;;3.00;1.80;;;24.20;94.80;;;;;;4934241;29;20031;-90
2021/01/02 10:08:14;;;;;;;34.60;18.38;;;24.20;94.90;;;;;;4914218;29;20056;-92
2021/01/02 10:10:40;;;;;;;6.95;4.13;;;24.20;95.00;;;;;;4913178;29;20221;-91
2021/01/02 10:13:07;;;;;;;10.07;4.82;;;24.30;95.10;;;;;;4930384;29;20020;-92
2021/01/02 10:15:33;;;;;;;4.70;2.35;;;24.20;95.00;;;;;;4912653;29;20269;-93
2021/01/02 10:18:11;;;;;;;3.80;2.10;;;24.10;95.30;;;;;;4913883;29;20035;-95
2021/01/02 10:20:38;;;;;;;4.25;2.20;;;24.10;95.30;;;;;;4898594;29;20048;-90
2021/01/02 10:23:11;;;;;;;4.13;2.30;;;24.10;95.50;;;;;;4914981;29;20020;-92
2021/01/02 10:25:45;;;;;;;2.90;2.45;;;24.10;95.70;;;;;;4915541;29;20052;-89
2021/01/02 10:28:34;;;;;;;;;;;23.90;95.90;;;;;;4931618;29;20016;-93
2021/01/02 10:31:07;;;;;;;2.35;1.60;;;24.00;96.00;;;;;;4931235;29;19938;-92
2021/01/02 10:33:33;;;;;;;3.72;1.77;;;23.90;95.60;;;;;;4914977;29;20031;-92
2021/01/02 10:36:00;;;;;;;2.03;1.55;;;23.90;95.60;;;;;;4913790;29;20348;-93
2021/01/02 10:38:27;;;;;;;46.40;6.40;;;24.00;95.60;;;;;;4913287;29;20055;-92
2021/01/02 10:40:53;;;;;;;2.60;1.70;;;23.80;96.50;;;;;;4913727;29;20055;-92
2021/01/02 10:43:25;;;;;;;4.47;2.00;;;23.50;96.80;;;;;;4931943;29;20028;-91
2021/01/02 10:45:54;;;;;;;9.27;2.90;;;23.40;97.80;;;;;;4935404;29;20099;-89
2021/01/02 10:48:26;;;;;;;18.35;3.67;;;23.50;98.10;;;;;;4934380;29;20043;-89
2021/01/02 10:51:09;;;;;;;12.05;2.75;;;23.40;97.50;;;;;;4941275;29;20070;-89
2021/01/02 10:54:37;;;;;;;5.05;1.50;;;23.60;96.70;;;;;;4924486;29;20067;-89
2021/01/02 11:00:47;;;;;;;1.92;1.25;;;23.60;96.80;;;;;;4956971;28;20066;-87
2021/01/02 11:03:24;;;;;;;1.63;1.10;;;23.50;96.60;;;;;;4956513;29;20228;-91
2021/01/02 11:06:18;;;;;;;1.70;1.15;;;23.50;96.70;;;;;;4954170;29;20034;-88
2021/01/02 11:12:12;;;;;;;1.95;1.50;;;23.50;96.70;;;;;;4895965;29;20075;-95
2021/01/02 11:14:42;;;;;;;2.80;1.40;;;23.40;96.80;;;;;;4894516;29;20096;-92
2021/01/02 11:17:14;;;;;;;3.63;1.80;;;23.40;96.90;;;;;;4880125;29;20021;-87
2021/01/02 11:20:31;;;;;;;6.00;1.67;;;23.40;97.60;;;;;;4879660;29;20028;-91
2021/01/02 11:23:05;;;;;;;15.70;2.67;;;23.50;97.30;;;;;;4891878;29;20040;-94
2021/01/02 11:25:34;;;;;;;6.03;1.70;;;23.50;97.10;;;;;;4892473;29;20033;-90
2021/01/02 11:28:01;;;;;;;4.03;1.45;;;23.50;96.80;;;;;;4876660;29;20047;-91
2021/01/02 11:30:47;;;;;;;5.35;1.55;;;23.40;97.00;;;;;;4878824;29;20025;-90
2021/01/02 11:33:21;;;;;;;2.83;1.70;;;23.40;97.00;;;;;;4894212;29;20174;-89
2021/01/02 11:35:48;;;;;;;5.35;1.63;;;23.40;97.00;;;;;;4879244;29;20117;-89
2021/01/02 11:38:31;;;;;;;3.15;2.05;;;23.30;97.10;;;;;;4879707;29;20024;-88
2021/01/02 11:41:00;;;;;;;2.00;1.30;;;23.00;98.20;;;;;;4951752;29;20036;-91
2021/01/02 11:43:29;;;;;;;6.93;1.60;;;22.70;99.30;;;;;;4935776;29;20019;-92
2021/01/02 11:45:57;;;;;;;7.93;1.77;;;22.90;99.10;;;;;;4950724;29;20159;-93
2021/01/02 11:48:24;;;;;;;3.70;1.65;;;23.00;98.70;;;;;;4935034;29;20030;-92
2021/01/02 11:50:52;;;;;;;2.33;1.65;;;23.10;98.70;;;;;;4932502;29;20356;-91
2021/01/02 11:53:19;;;;;;;2.17;1.30;;;23.10;98.40;;;;;;4912734;29;20031;-93
2021/01/02 11:55:51;;;;;;;2.28;1.23;;;23.10;98.40;;;;;;4914724;29;20085;-93
2021/01/02 11:58:28;;;;;;;3.33;1.03;;;23.20;98.00;;;;;;4917228;29;20063;-91
2021/01/02 12:01:05;;;;;;;2.38;1.30;;;23.30;97.80;;;;;;4933279;29;20286;-89
2021/01/02 12:03:53;;;;;;;2.28;1.23;;;23.30;97.70;;;;;;4933051;29;20028;-90
2021/01/02 12:07:26;;;;;;;1.70;1.15;;;23.20;97.50;;;;;;4936570;29;20022;-90
2021/01/02 12:09:57;;;;;;;1.42;1.10;;;23.20;97.70;;;;;;4934600;29;20028;-88
2021/01/02 12:12:35;;;;;;;3.38;1.30;;;23.20;97.70;;;;;;4916703;29;20020;-89
2021/01/02 12:21:07;;;;;;;2.33;1.13;;;23.10;97.80;;;;;;4937815;29;20061;-90
2021/01/02 12:27:54;;;;;;;1.23;0.98;;;23.20;97.60;;;;;;4935067;29;20044;-92
2021/01/02 12:30:23;;;;;;;2.60;1.25;;;23.30;97.60;;;;;;4916667;29;20366;-90
2021/01/02 12:32:49;;;;;;;1.17;0.80;;;23.40;98.00;;;;;;4917200;29;20043;-92
2021/01/02 12:38:51;;;;;;;1.58;0.60;;;23.50;97.20;;;;;;4935205;29;20101;-90
2021/01/02 12:41:31;;;;;;;1.35;0.63;;;23.60;97.20;;;;;;4917128;29;20100;-92
2021/01/02 12:55:46;;;;;;;1.55;0.80;;;23.80;96.90;;;;;;4947901;29;20055;-90
2021/01/02 12:58:24;;;;;;;2.50;0.65;;;23.80;96.90;;;;;;4953722;29;20023;-95
2021/01/02 13:01:04;;;;;;;1.30;0.55;;;23.80;96.80;;;;;;4949709;29;20216;-91
2021/01/02 13:03:33;;;;;;;2.70;0.70;;;23.80;96.70;;;;;;4935718;29;20019;-93
2021/01/02 13:06:04;;;;;;;1.98;0.90;;;23.70;96.80;;;;;;4938688;29;20023;-90
2021/01/02 13:08:31;;;;;;;1.60;0.70;;;23.70;96.50;;;;;;4937886;29;20095;-91
2021/01/02 13:11:02;;;;;;;0.90;0.70;;;23.60;96.50;;;;;;4937516;29;20113;-86
2021/01/02 13:13:46;;;;;;;1.63;0.85;;;23.60;96.70;;;;;;4942316;29;20028;-92
2021/01/02 13:16:35;;;;;;;1.45;0.60;;;23.60;96.50;;;;;;4957066;29;20035;-91
2021/01/02 13:19:02;;;;;;;1.63;0.80;;;23.60;96.60;;;;;;4940009;29;20038;-93
2021/01/02 13:21:29;;;;;;;2.85;0.93;;;23.60;96.80;;;;;;4938247;29;20024;-91
2021/01/02 13:23:55;;;;;;;1.88;0.98;;;23.60;96.20;;;;;;4938603;29;20037;-91
2021/01/02 13:26:23;;;;;;;3.58;0.90;;;23.60;96.60;;;;;;4938523;29;20020;-93
2021/01/02 13:29:03;;;;;;;1.55;1.00;;;23.70;96.60;;;;;;4954493;29;20063;-93
2021/01/02 13:32:07;;;;;;;1.27;0.90;;;23.80;96.40;;;;;;4934072;29;20095;-91
2021/01/02 13:34:44;;;;;;;1.27;0.88;;;23.80;96.30;;;;;;4952291;29;20040;-94
2021/01/02 13:37:34;;;;;;;2.00;1.10;;;23.90;96.10;;;;;;4937727;29;20067;-90
2021/01/02 13:47:05;;;;;;;1.48;1.00;;;23.80;96.60;;;;;;4956361;29;20341;-90
2021/01/02 13:52:39;;;;;;;1.58;1.02;;;23.90;96.40;;;;;;4955790;29;20024;-90
2021/01/02 13:55:11;;;;;;;2.33;0.80;;;24.10;96.00;;;;;;4916811;29;20048;-90
2021/01/02 13:57:47;;;;;;;2.38;1.13;;;24.10;95.80;;;;;;4954660;29;20028;-91
2021/01/02 14:00:18;;;;;;;4.05;1.55;;;24.20;95.80;;;;;;4937414;29;20078;-95
2021/01/02 14:02:45;;;;;;;1.60;1.13;;;24.30;95.00;;;;;;4937586;29;20095;-92
2021/01/02 14:05:13;;;;;;;3.33;1.23;;;24.30;95.40;;;;;;5006612;23;20129;-93
2021/01/02 14:08:01;;;;;;;2.90;1.35;;;24.40;95.20;;;;;;4934436;29;20032;-94
2021/01/02 14:10:28;;;;;;;3.53;1.10;;;24.40;95.20;;;;;;4913930;29;20174;-91
2021/01/02 14:12:55;;;;;;;1.83;1.42;;;24.50;95.10;;;;;;4928761;29;20023;-92
2021/01/02 14:15:21;;;;;;;2.03;1.50;;;24.50;95.20;;;;;;4913511;29;20043;-92
2021/01/02 14:17:49;;;;;;;2.65;1.30;;;24.50;95.30;;;;;;4914158;29;20024;-92
2021/01/02 14:20:16;;;;;;;3.10;1.10;;;24.60;95.20;;;;;;4913469;29;20027;-91
2021/01/02 14:22:43;;;;;;;2.15;1.00;;;24.50;94.90;;;;;;4913272;29;20032;-92
2021/01/02 14:25:12;;;;;;;1.25;0.80;;;24.60;94.60;;;;;;4909972;29;20024;-91
2021/01/02 14:27:38;;;;;;;1.67;1.05;;;24.50;94.90;;;;;;4893805;29;20043;-88
2021/01/02 14:30:07;;;;;;;3.08;0.95;;;24.50;95.00;;;;;;4911019;29;20016;-92
2021/01/02 14:32:34;;;;;;;2.08;1.10;;;24.60;95.10;;;;;;4894144;29;20289;-91
2021/01/02 14:35:01;;;;;;;4.05;0.80;;;24.60;94.80;;;;;;4894221;29;20032;-90
2021/01/02 14:37:28;;;;;;;3.35;2.00;;;24.80;94.90;;;;;;4893434;29;20028;-90
2021/01/02 14:39:56;;;;;;;1.35;0.80;;;24.90;94.50;;;;;;4910322;29;20042;-92
2021/01/02 14:42:22;;;;;;;1.50;0.60;;;25.00;94.30;;;;;;4893624;29;20425;-90
2021/01/02 14:44:49;;;;;;;2.78;1.00;;;25.10;94.50;;;;;;4909234;29;20228;-89
2021/01/02 14:47:16;;;;;;;1.30;0.80;;;25.20;94.20;;;;;;4893263;29;20031;-90
2021/01/02 14:49:45;;;;;;;0.80;0.60;;;25.30;93.90;;;;;;4893164;29;20032;-91
2021/01/02 14:52:30;;;;;;;3.20;0.80;;;25.50;93.50;;;;;;4894163;29;20043;-96
2021/01/02 14:58:33;;;;;;;2.10;0.70;;;25.70;92.80;;;;;;4877767;29;20255;-91
2021/01/02 15:00:59;;;;;;;2.03;0.90;;;25.90;93.30;;;;;;4879284;29;20048;-91
2021/01/02 15:03:26;;;;;;;4.78;0.70;;;26.00;92.50;;;;;;4855921;29;20030;-93
2021/01/02 15:05:53;;;;;;;1.88;0.70;;;26.20;92.70;;;;;;4858701;29;20041;-92
2021/01/02 15:08:43;;;;;;;2.03;1.20;;;26.30;92.20;;;;;;4843523;29;20043;-91
2021/01/02 15:11:11;;;;;;;3.67;2.60;;;26.30;91.70;;;;;;5153360;23;20051;-91
2021/01/02 15:13:39;;;;;;;2.75;1.10;;;26.40;91.10;;;;;;4927269;29;20024;-88
2021/01/02 15:16:07;;;;;;;3.95;2.10;;;26.40;91.50;;;;;;4928028;29;20095;-89
2021/01/02 15:21:20;;;;;;;1.85;1.20;;;26.40;91.60;;;;;;4967947;29;20035;-89
2021/01/02 15:23:51;;;;;;;1.67;0.80;;;26.40;91.50;;;;;;4952368;29;20031;-88
2021/01/02 15:28:57;;;;;;;1.70;0.90;;;26.60;90.90;;;;;;5139212;23;20059;-91
2021/01/02 15:34:01;;;;;;;1.65;0.73;;;27.00;90.10;;;;;;4912022;29;20059;-91
2021/01/02 15:36:32;;;;;;;6.10;2.00;;;27.20;90.30;;;;;;4911074;29;20031;-93
2021/01/02 15:39:00;;;;;;;1.85;0.98;;;27.50;88.30;;;;;;4895445;29;20044;-91
2021/01/02 15:41:46;;;;;;;0.70;0.50;;;27.60;87.40;;;;;;4911369;29;20028;-94
2021/01/02 15:44:36;;;;;;;1.77;0.85;;;27.60;86.60;;;;;;4895094;29;20052;-92
2021/01/02 15:47:09;;;;;;;1.17;0.50;;;27.90;87.70;;;;;;4895926;29;20108;-92
2021/01/02 15:49:37;;;;;;;2.15;0.55;;;27.80;86.50;;;;;;4894034;29;20054;-91
2021/01/02 15:52:12;;;;;;;1.38;0.80;;;27.90;85.10;;;;;;4893242;29;20071;-93
2021/01/02 15:54:40;;;;;;;1.20;0.65;;;28.00;85.90;;;;;;4894889;29;20042;-92
2021/01/02 15:57:08;;;;;;;4.10;0.80;;;28.20;84.20;;;;;;4894482;29;20016;-93
2021/01/02 15:59:37;;;;;;;1.10;0.50;;;28.60;84.90;;;;;;4894539;29;20031;-94
2021/01/02 16:02:07;;;;;;;2.10;0.80;;;28.80;81.50;;;;;;4909947;29;20032;-93
2021/01/02 16:04:34;;;;;;;0.80;0.50;;;28.80;85.20;;;;;;4895373;29;20344;-92
2021/01/02 16:07:07;;;;;;;1.20;0.60;;;29.10;80.70;;;;;;4895477;29;20105;-95
2021/01/02 16:09:40;;;;;;;1.42;0.65;;;29.30;81.50;;;;;;4878919;29;20119;-94
2021/01/02 16:12:12;;;;;;;5.18;1.45;;;29.30;77.40;;;;;;4894331;29;20028;-95
2021/01/02 16:14:43;;;;;;;3.03;0.95;;;29.20;76.60;;;;;;4894327;29;20036;-91
2021/01/02 16:17:11;;;;;;;1.42;0.60;;;29.40;76.20;;;;;;4894381;29;20052;-96
2021/01/02 16:22:14;;;;;;;2.13;1.00;;;29.80;76.50;;;;;;4957413;23;20060;-90
2021/01/02 16:24:48;;;;;;;1.30;0.55;;;29.70;74.50;;;;;;4928120;29;20067;-92
2021/01/02 16:27:16;;;;;;;40.35;5.28;;;29.50;73.90;;;;;;4914867;29;20032;-92
2021/01/02 16:37:40;;;;;;;1.27;0.57;;;29.10;73.00;;;;;;5051916;23;20066;-94
2021/01/02 16:43:09;;;;;;;1.83;1.00;;;29.00;73.70;;;;;;5540797;23;20047;-92
2021/01/02 16:45:39;;;;;;;2.58;1.05;;;29.10;73.90;;;;;;4949362;29;20043;-94
2021/01/02 16:48:28;;;;;;;3.35;0.85;;;29.10;74.30;;;;;;4935688;28;20019;-93
2021/01/02 16:50:55;;;;;;;1.83;0.60;;;29.20;74.00;;;;;;4933314;29;20027;-91
2021/01/02 16:53:23;;;;;;;1.10;0.60;;;29.10;73.40;;;;;;4932532;29;20031;-94
2021/01/02 16:55:53;;;;;;;1.35;0.80;;;29.10;75.30;;;;;;4933835;29;20035;-93
2021/01/02 16:58:23;;;;;;;1.25;0.68;;;29.10;74.70;;;;;;4933964;29;20027;-92
2021/01/02 17:00:58;;;;;;;1.65;0.63;;;29.00;75.00;;;;;;4933219;29;20055;-92
2021/01/02 17:03:25;;;;;;;2.30;1.65;;;28.90;73.40;;;;;;4931927;29;20020;-91
2021/01/02 17:05:52;;;;;;;5.03;2.30;;;28.90;74.00;;;;;;4932195;29;20035;-89
2021/01/02 17:08:29;;;;;;;;;;;;;;;;;;;;;
2021/01/02 17:11:03;;;;;;;3.15;0.90;;;29.40;72.10;;;;;;4950777;29;20062;-93
2021/01/02 17:13:34;;;;;;;2.58;0.80;;;29.60;73.90;;;;;;4932538;29;20028;-93